This is the latest recevied weather packets stored in our database for station/object KE7TOP-15. If no packets are shown the sender has not sent any weather packets the latest 10 day(s).
| Time | Temp. | Humidity | Pressure | Rain* | Wind** | Luminosity | Snow |
|---|---|---|---|---|---|---|---|
| 1777653617 | 16.67° C | 22% | 1020.9 hPa | 0 mm | - | 493 W/m² | - |
| 1777652416 | 16.67° C | 23% | 1020.9 hPa | 0 mm | - | 439 W/m² | - |
| 1777650623 | 15° C | 26% | 1021.1 hPa | 0 mm | - | 361 W/m² | - |
| 1777649422 | 12.78° C | 32% | 1021.1 hPa | 0 mm | - | 320 W/m² | - |
| 1777641018 | 0.56° C | 73% | 1020 hPa | 0 mm | - | 7 W/m² | - |
| 1777630244 | 1.67° C | 64% | 1019.2 hPa | 0 mm | - | 0 W/m² | - |
| 1777629623 | 1.67° C | 62% | 1019.2 hPa | 0 mm | - | 0 W/m² | - |
| 1777627820 | 2.78° C | 64% | 1019.2 hPa | 0 mm | - | 0 W/m² | - |
| 1777626639 | 3.89° C | 55% | 1019.2 hPa | 0 mm | - | 0 W/m² | - |
| 1777621255 | 3.89° C | 52% | 1019.2 hPa | 0 mm | - | 0 W/m² | - |
| 1777620645 | 4.44° C | 50% | 1019.2 hPa | 0 mm | - | 0 W/m² | - |
| 1777618240 | 5° C | 48% | 1019.1 hPa | 0 mm | - | 0 W/m² | - |
| 1777611618 | 8.33° C | 39% | 1018.7 hPa | 0 mm | - | 0 W/m² | - |
| 1777610437 | 10.56° C | 35% | 1018.5 hPa | 0 mm | - | 0 W/m² | - |
| 1777603241 | 16.67° C | 22% | 1017.3 hPa | 0 mm | - | 12 W/m² | - |
| 1777602641 | 17.22° C | 21% | 1017.2 hPa | 0 mm | - | 18 W/m² | - |
| 1777599616 | 20.56° C | 18% | 1017.1 hPa | 0 mm | - | 104 W/m² | - |
| 1777598423 | 21.11° C | 18% | 1017 hPa | 0 mm | - | 171 W/m² | - |
| 1777595417 | 21.11° C | 19% | 1016.8 hPa | 0 mm | - | 244 W/m² | - |
| 1777594215 | 20.56° C | 18% | 1016.9 hPa | 0 mm | - | 328 W/m² | - |
| 1777593023 | 20.56° C | 19% | 1017 hPa | 0 mm | - | 182 W/m² | - |
| 1777590620 | 21.11° C | 18% | 1017.3 hPa | 0 mm | - | 564 W/m² | - |
| 1777588818 | 21.11° C | 18% | 1017.5 hPa | 0 mm | - | 547 W/m² | - |
| 1777587644 | 21.67° C | 17% | 1017.8 hPa | 0 mm | - | 202 W/m² | - |
| 1777583418 | 20° C | 19% | 1018.4 hPa | 0 mm | - | 713 W/m² | - |
* Rain latest hour (hover to see other rain measurements)
** Current wind speed in m/s (hover to see current wind gust speed)